Elmore, Vermont
Current Conditions -  °F | °C
As of 9:54 PM on Sunday 21 Dec 2014 (Local Time) from KMVL Reporting Station
NA  
Wind Chill: 23°   Ceiling: NA
Heat Index: 23°   Visibility: 8mi
Dew Point: 20°   Wind: 0mph
Humidity: 88%   Direction: NA
Pressure: 30.37"   Gusts: NA
Location:  44.5407°N, 72.5287°W
Report Text: KMVL 220254Z AUTO 00000KT 8SM M05/M07 A3037 RMK AO2 SLP299 T10501067 TSNO $
Loading
Personal Weather Stations






























Interactive Weather Map New forecast layout! Learn more

10-Day Weather Forecast

Advertisements
Track Severe Weather on mobile